A80 TRACON Summary / KATL TAF
ATL TRACON Summary:
Expect mostly VFR conditions with a FEW/SCT040 deck through the rest of the afternoon. Surface winds will be from the northeast at 3-6kts. No significant flight hazards are expected in the TRACON airspace.

Updated:9/30/2014 12:15 PM
ATL Terminal Aerodrome Forecast:

FTUS80 KATL 301948 AAA
KATL 301947Z 3020/0124 34003KT P6SM SCT045
     FM302200 VRB03KT P6SM FEW050
     FM011000 VRB02KT 6SM BR FEW010
     FM011400 20005KT P6SM SCT050
ATL TRACON Area Remark:
NONE.
Convective Gate Forecast / Collaborative Convective Forecast Product / Vertical Wind Profile
Convective Gate Forecast
AIRMETs & SIGMETS/ Southeast Radar loop / Satellite Image (click on image to enlarge)

Southeast Radar Loop

 



USA.gov is the U.S. government's official web portal to all federal, state and local government web resources and services.